sensor_id;sensor_type;location;lat;lon;timestamp;P1;durP1;ratioP1;P2;durP2;ratioP2
32501;SDS011;18952;52.516;13.460;2023-10-09T00:01:00;5.25;;;3.58;;
32501;SDS011;18952;52.516;13.460;2023-10-09T00:03:28;4.35;;;3.33;;
32501;SDS011;18952;52.516;13.460;2023-10-09T00:05:55;5.40;;;3.33;;
32501;SDS011;18952;52.516;13.460;2023-10-09T00:08:22;4.47;;;3.50;;
32501;SDS011;18952;52.516;13.460;2023-10-09T00:10:49;4.75;;;3.22;;
32501;SDS011;18952;52.516;13.460;2023-10-09T00:13:16;8.82;;;3.22;;
32501;SDS011;18952;52.516;13.460;2023-10-09T00:15:43;9.52;;;3.13;;
32501;SDS011;18952;52.516;13.460;2023-10-09T00:18:10;8.10;;;3.10;;
32501;SDS011;18952;52.516;13.460;2023-10-09T00:20:37;6.20;;;2.78;;
32501;SDS011;18952;52.516;13.460;2023-10-09T00:23:06;6.22;;;2.90;;
32501;SDS011;18952;52.516;13.460;2023-10-09T00:25:33;6.90;;;3.35;;
32501;SDS011;18952;52.516;13.460;2023-10-09T00:28:00;5.63;;;2.70;;
32501;SDS011;18952;52.516;13.460;2023-10-09T00:30:26;6.60;;;3.30;;
32501;SDS011;18952;52.516;13.460;2023-10-09T00:32:53;4.20;;;2.80;;
32501;SDS011;18952;52.516;13.460;2023-10-09T00:35:20;6.93;;;3.35;;
32501;SDS011;18952;52.516;13.460;2023-10-09T00:37:47;6.35;;;2.90;;
32501;SDS011;18952;52.516;13.460;2023-10-09T00:40:14;6.53;;;3.20;;
32501;SDS011;18952;52.516;13.460;2023-10-09T00:42:41;8.18;;;3.58;;
32501;SDS011;18952;52.516;13.460;2023-10-09T00:45:07;6.90;;;3.28;;
32501;SDS011;18952;52.516;13.460;2023-10-09T00:47:34;4.53;;;3.15;;
32501;SDS011;18952;52.516;13.460;2023-10-09T00:52:32;7.25;;;3.13;;
32501;SDS011;18952;52.516;13.460;2023-10-09T00:55:00;5.20;;;3.60;;
32501;SDS011;18952;52.516;13.460;2023-10-09T00:57:28;5.90;;;3.88;;
32501;SDS011;18952;52.516;13.460;2023-10-09T00:59:55;10.57;;;3.65;;
32501;SDS011;18952;52.516;13.460;2023-10-09T01:02:23;7.30;;;3.33;;
32501;SDS011;18952;52.516;13.460;2023-10-09T01:04:49;5.20;;;3.08;;
32501;SDS011;18952;52.516;13.460;2023-10-09T01:07:16;5.22;;;3.03;;
32501;SDS011;18952;52.516;13.460;2023-10-09T01:09:43;5.20;;;3.30;;
32501;SDS011;18952;52.516;13.460;2023-10-09T01:12:10;11.02;;;3.60;;
32501;SDS011;18952;52.516;13.460;2023-10-09T01:14:37;8.18;;;3.08;;
32501;SDS011;18952;52.516;13.460;2023-10-09T01:17:04;5.30;;;3.53;;
32501;SDS011;18952;52.516;13.460;2023-10-09T01:19:31;5.03;;;3.33;;
32501;SDS011;18952;52.516;13.460;2023-10-09T01:21:58;5.47;;;3.13;;
32501;SDS011;18952;52.516;13.460;2023-10-09T01:24:25;4.65;;;3.10;;
32501;SDS011;18952;52.516;13.460;2023-10-09T01:26:51;4.50;;;2.80;;
32501;SDS011;18952;52.516;13.460;2023-10-09T01:29:22;7.18;;;3.17;;
32501;SDS011;18952;52.516;13.460;2023-10-09T01:31:50;8.20;;;2.97;;
32501;SDS011;18952;52.516;13.460;2023-10-09T01:34:18;4.03;;;2.78;;
32501;SDS011;18952;52.516;13.460;2023-10-09T01:36:45;5.90;;;3.22;;
32501;SDS011;18952;52.516;13.460;2023-10-09T01:39:12;5.57;;;3.33;;
32501;SDS011;18952;52.516;13.460;2023-10-09T01:41:39;4.10;;;3.50;;
32501;SDS011;18952;52.516;13.460;2023-10-09T01:44:06;5.38;;;3.50;;
32501;SDS011;18952;52.516;13.460;2023-10-09T01:46:33;6.40;;;3.10;;
32501;SDS011;18952;52.516;13.460;2023-10-09T01:48:59;6.30;;;3.25;;
32501;SDS011;18952;52.516;13.460;2023-10-09T01:51:26;7.55;;;3.20;;
32501;SDS011;18952;52.516;13.460;2023-10-09T01:53:53;4.22;;;3.05;;
32501;SDS011;18952;52.516;13.460;2023-10-09T01:56:20;7.13;;;3.45;;
32501;SDS011;18952;52.516;13.460;2023-10-09T01:58:47;7.53;;;3.75;;
32501;SDS011;18952;52.516;13.460;2023-10-09T02:01:13;9.38;;;3.67;;
32501;SDS011;18952;52.516;13.460;2023-10-09T02:03:40;5.05;;;3.08;;
32501;SDS011;18952;52.516;13.460;2023-10-09T02:06:08;5.68;;;2.97;;
32501;SDS011;18952;52.516;13.460;2023-10-09T02:08:35;8.35;;;3.08;;
32501;SDS011;18952;52.516;13.460;2023-10-09T02:11:02;6.97;;;3.47;;
32501;SDS011;18952;52.516;13.460;2023-10-09T02:13:29;6.25;;;3.40;;
32501;SDS011;18952;52.516;13.460;2023-10-09T02:15:56;5.45;;;3.50;;
32501;SDS011;18952;52.516;13.460;2023-10-09T02:18:23;7.22;;;3.30;;
32501;SDS011;18952;52.516;13.460;2023-10-09T02:20:51;7.20;;;3.35;;
32501;SDS011;18952;52.516;13.460;2023-10-09T02:23:18;6.82;;;3.30;;
32501;SDS011;18952;52.516;13.460;2023-10-09T02:25:45;5.68;;;3.70;;
32501;SDS011;18952;52.516;13.460;2023-10-09T02:28:12;5.43;;;3.22;;
32501;SDS011;18952;52.516;13.460;2023-10-09T02:30:39;8.13;;;3.78;;
32501;SDS011;18952;52.516;13.460;2023-10-09T02:33:05;7.78;;;3.55;;
32501;SDS011;18952;52.516;13.460;2023-10-09T02:35:32;8.48;;;4.00;;
32501;SDS011;18952;52.516;13.460;2023-10-09T02:37:59;8.90;;;3.60;;
32501;SDS011;18952;52.516;13.460;2023-10-09T02:40:27;4.90;;;3.35;;
32501;SDS011;18952;52.516;13.460;2023-10-09T02:42:54;5.47;;;3.60;;
32501;SDS011;18952;52.516;13.460;2023-10-09T02:45:21;7.20;;;4.05;;
32501;SDS011;18952;52.516;13.460;2023-10-09T02:47:48;8.10;;;3.72;;
32501;SDS011;18952;52.516;13.460;2023-10-09T02:50:15;12.00;;;4.63;;
32501;SDS011;18952;52.516;13.460;2023-10-09T02:52:42;10.60;;;4.15;;
32501;SDS011;18952;52.516;13.460;2023-10-09T02:55:09;7.03;;;4.43;;
32501;SDS011;18952;52.516;13.460;2023-10-09T02:57:35;11.80;;;5.03;;
32501;SDS011;18952;52.516;13.460;2023-10-09T03:00:03;9.80;;;5.00;;
32501;SDS011;18952;52.516;13.460;2023-10-09T03:02:31;7.22;;;4.95;;
32501;SDS011;18952;52.516;13.460;2023-10-09T03:04:58;8.27;;;5.25;;
32501;SDS011;18952;52.516;13.460;2023-10-09T03:07:24;8.20;;;4.90;;
32501;SDS011;18952;52.516;13.460;2023-10-09T03:09:51;13.23;;;5.60;;
32501;SDS011;18952;52.516;13.460;2023-10-09T03:12:18;9.68;;;5.85;;
32501;SDS011;18952;52.516;13.460;2023-10-09T03:14:45;10.02;;;5.68;;
32501;SDS011;18952;52.516;13.460;2023-10-09T03:17:12;8.00;;;5.28;;
32501;SDS011;18952;52.516;13.460;2023-10-09T03:19:39;10.15;;;5.90;;
32501;SDS011;18952;52.516;13.460;2023-10-09T03:22:06;15.25;;;5.68;;
32501;SDS011;18952;52.516;13.460;2023-10-09T03:24:34;8.35;;;5.65;;
32501;SDS011;18952;52.516;13.460;2023-10-09T03:27:01;10.88;;;5.60;;
32501;SDS011;18952;52.516;13.460;2023-10-09T03:29:27;12.75;;;6.57;;
32501;SDS011;18952;52.516;13.460;2023-10-09T03:31:55;11.45;;;6.30;;
32501;SDS011;18952;52.516;13.460;2023-10-09T03:34:22;8.13;;;5.40;;
32501;SDS011;18952;52.516;13.460;2023-10-09T03:36:49;12.00;;;6.38;;
32501;SDS011;18952;52.516;13.460;2023-10-09T03:39:16;9.77;;;6.15;;
32501;SDS011;18952;52.516;13.460;2023-10-09T03:41:43;16.08;;;6.28;;
32501;SDS011;18952;52.516;13.460;2023-10-09T03:44:10;10.02;;;5.82;;
32501;SDS011;18952;52.516;13.460;2023-10-09T03:46:37;11.05;;;5.68;;
32501;SDS011;18952;52.516;13.460;2023-10-09T03:49:04;7.90;;;5.55;;
32501;SDS011;18952;52.516;13.460;2023-10-09T03:51:31;17.75;;;5.80;;
32501;SDS011;18952;52.516;13.460;2023-10-09T03:53:58;12.48;;;6.50;;
32501;SDS011;18952;52.516;13.460;2023-10-09T03:56:25;9.80;;;5.65;;
32501;SDS011;18952;52.516;13.460;2023-10-09T03:58:52;9.73;;;5.93;;
32501;SDS011;18952;52.516;13.460;2023-10-09T04:01:19;10.98;;;7.20;;
32501;SDS011;18952;52.516;13.460;2023-10-09T04:03:47;7.80;;;5.45;;
32501;SDS011;18952;52.516;13.460;2023-10-09T04:06:14;8.10;;;5.75;;
32501;SDS011;18952;52.516;13.460;2023-10-09T04:08:41;9.18;;;5.57;;
32501;SDS011;18952;52.516;13.460;2023-10-09T04:11:08;9.63;;;5.30;;
32501;SDS011;18952;52.516;13.460;2023-10-09T04:13:34;6.78;;;4.80;;
32501;SDS011;18952;52.516;13.460;2023-10-09T04:16:02;6.22;;;5.53;;
32501;SDS011;18952;52.516;13.460;2023-10-09T04:18:29;10.80;;;7.22;;
32501;SDS011;18952;52.516;13.460;2023-10-09T04:20:56;9.07;;;6.25;;
32501;SDS011;18952;52.516;13.460;2023-10-09T04:23:23;12.80;;;6.60;;
32501;SDS011;18952;52.516;13.460;2023-10-09T04:25:49;8.60;;;4.90;;
32501;SDS011;18952;52.516;13.460;2023-10-09T04:28:16;14.07;;;5.43;;
32501;SDS011;18952;52.516;13.460;2023-10-09T04:30:43;11.55;;;6.97;;
32501;SDS011;18952;52.516;13.460;2023-10-09T04:33:10;13.90;;;7.03;;
32501;SDS011;18952;52.516;13.460;2023-10-09T04:35:38;14.82;;;6.63;;
32501;SDS011;18952;52.516;13.460;2023-10-09T04:38:05;15.48;;;7.35;;
32501;SDS011;18952;52.516;13.460;2023-10-09T04:40:32;11.13;;;7.68;;
32501;SDS011;18952;52.516;13.460;2023-10-09T04:42:58;20.70;;;7.90;;
32501;SDS011;18952;52.516;13.460;2023-10-09T04:45:25;13.40;;;8.00;;
32501;SDS011;18952;52.516;13.460;2023-10-09T04:47:52;12.68;;;6.80;;
32501;SDS011;18952;52.516;13.460;2023-10-09T04:50:19;10.30;;;6.13;;
32501;SDS011;18952;52.516;13.460;2023-10-09T04:52:46;8.32;;;5.78;;
32501;SDS011;18952;52.516;13.460;2023-10-09T04:55:13;13.13;;;8.25;;
32501;SDS011;18952;52.516;13.460;2023-10-09T04:57:41;12.73;;;6.70;;
32501;SDS011;18952;52.516;13.460;2023-10-09T05:00:18;9.68;;;6.07;;
32501;SDS011;18952;52.516;13.460;2023-10-09T05:02:45;6.93;;;5.30;;
32501;SDS011;18952;52.516;13.460;2023-10-09T05:05:12;9.65;;;6.00;;
32501;SDS011;18952;52.516;13.460;2023-10-09T05:07:39;11.35;;;5.80;;
32501;SDS011;18952;52.516;13.460;2023-10-09T05:10:05;11.40;;;6.30;;
32501;SDS011;18952;52.516;13.460;2023-10-09T05:12:33;9.25;;;5.70;;
32501;SDS011;18952;52.516;13.460;2023-10-09T05:15:00;9.90;;;5.53;;
32501;SDS011;18952;52.516;13.460;2023-10-09T05:17:27;8.18;;;5.97;;
32501;SDS011;18952;52.516;13.460;2023-10-09T05:19:53;8.55;;;5.35;;
32501;SDS011;18952;52.516;13.460;2023-10-09T05:22:20;8.95;;;5.75;;
32501;SDS011;18952;52.516;13.460;2023-10-09T05:24:48;11.23;;;6.50;;
32501;SDS011;18952;52.516;13.460;2023-10-09T05:27:14;6.88;;;5.70;;
32501;SDS011;18952;52.516;13.460;2023-10-09T05:29:41;10.73;;;6.70;;
32501;SDS011;18952;52.516;13.460;2023-10-09T05:32:08;26.50;;;6.28;;
32501;SDS011;18952;52.516;13.460;2023-10-09T05:34:35;10.23;;;5.68;;
32501;SDS011;18952;52.516;13.460;2023-10-09T05:37:02;11.55;;;4.90;;
32501;SDS011;18952;52.516;13.460;2023-10-09T05:39:30;15.32;;;5.45;;
32501;SDS011;18952;52.516;13.460;2023-10-09T05:41:57;6.32;;;4.97;;
32501;SDS011;18952;52.516;13.460;2023-10-09T05:44:23;9.52;;;6.00;;
32501;SDS011;18952;52.516;13.460;2023-10-09T05:46:50;8.25;;;5.03;;
32501;SDS011;18952;52.516;13.460;2023-10-09T05:49:17;13.57;;;8.25;;
32501;SDS011;18952;52.516;13.460;2023-10-09T05:51:44;7.38;;;6.60;;
32501;SDS011;18952;52.516;13.460;2023-10-09T05:54:11;8.32;;;6.30;;
32501;SDS011;18952;52.516;13.460;2023-10-09T05:56:38;7.75;;;5.82;;
32501;SDS011;18952;52.516;13.460;2023-10-09T05:59:05;7.72;;;5.65;;
32501;SDS011;18952;52.516;13.460;2023-10-09T06:01:31;8.32;;;5.50;;
32501;SDS011;18952;52.516;13.460;2023-10-09T06:03:59;9.23;;;5.30;;
32501;SDS011;18952;52.516;13.460;2023-10-09T06:06:26;7.78;;;5.38;;
32501;SDS011;18952;52.516;13.460;2023-10-09T06:08:53;11.98;;;6.35;;
32501;SDS011;18952;52.516;13.460;2023-10-09T06:11:20;14.07;;;6.00;;
32501;SDS011;18952;52.516;13.460;2023-10-09T06:13:47;7.05;;;5.90;;
32501;SDS011;18952;52.516;13.460;2023-10-09T06:16:14;8.00;;;4.85;;
32501;SDS011;18952;52.516;13.460;2023-10-09T06:18:40;7.45;;;5.30;;
32501;SDS011;18952;52.516;13.460;2023-10-09T06:21:10;7.53;;;5.25;;
32501;SDS011;18952;52.516;13.460;2023-10-09T06:23:36;7.15;;;4.53;;
32501;SDS011;18952;52.516;13.460;2023-10-09T06:26:03;7.72;;;5.15;;
32501;SDS011;18952;52.516;13.460;2023-10-09T06:28:30;7.63;;;5.15;;
32501;SDS011;18952;52.516;13.460;2023-10-09T06:30:57;13.38;;;5.60;;
32501;SDS011;18952;52.516;13.460;2023-10-09T06:33:24;8.25;;;5.03;;
32501;SDS011;18952;52.516;13.460;2023-10-09T06:35:51;7.40;;;5.20;;
32501;SDS011;18952;52.516;13.460;2023-10-09T06:38:17;9.93;;;5.90;;
32501;SDS011;18952;52.516;13.460;2023-10-09T06:40:47;11.45;;;6.13;;
32501;SDS011;18952;52.516;13.460;2023-10-09T06:43:15;10.05;;;5.50;;
32501;SDS011;18952;52.516;13.460;2023-10-09T06:45:45;7.30;;;5.28;;
32501;SDS011;18952;52.516;13.460;2023-10-09T06:48:12;10.88;;;5.57;;
32501;SDS011;18952;52.516;13.460;2023-10-09T06:50:39;7.95;;;5.10;;
32501;SDS011;18952;52.516;13.460;2023-10-09T06:53:06;6.78;;;5.18;;
32501;SDS011;18952;52.516;13.460;2023-10-09T06:55:35;9.82;;;5.80;;
32501;SDS011;18952;52.516;13.460;2023-10-09T06:58:03;15.65;;;6.47;;
32501;SDS011;18952;52.516;13.460;2023-10-09T07:00:29;6.65;;;5.45;;
32501;SDS011;18952;52.516;13.460;2023-10-09T07:02:56;8.35;;;5.72;;
32501;SDS011;18952;52.516;13.460;2023-10-09T07:05:23;6.63;;;4.55;;
32501;SDS011;18952;52.516;13.460;2023-10-09T07:07:50;7.18;;;5.60;;
32501;SDS011;18952;52.516;13.460;2023-10-09T07:10:17;8.18;;;5.75;;
32501;SDS011;18952;52.516;13.460;2023-10-09T07:12:44;10.32;;;5.15;;
32501;SDS011;18952;52.516;13.460;2023-10-09T07:15:11;9.40;;;5.22;;
32501;SDS011;18952;52.516;13.460;2023-10-09T07:17:38;7.85;;;5.95;;
32501;SDS011;18952;52.516;13.460;2023-10-09T07:20:05;11.00;;;6.60;;
32501;SDS011;18952;52.516;13.460;2023-10-09T07:22:32;8.18;;;5.82;;
32501;SDS011;18952;52.516;13.460;2023-10-09T07:24:59;6.53;;;4.95;;
32501;SDS011;18952;52.516;13.460;2023-10-09T07:29:54;7.90;;;6.00;;
32501;SDS011;18952;52.516;13.460;2023-10-09T07:32:20;9.55;;;6.13;;
32501;SDS011;18952;52.516;13.460;2023-10-09T07:34:48;10.35;;;5.82;;
32501;SDS011;18952;52.516;13.460;2023-10-09T07:37:15;9.18;;;5.82;;
32501;SDS011;18952;52.516;13.460;2023-10-09T07:39:42;11.38;;;6.78;;
32501;SDS011;18952;52.516;13.460;2023-10-09T07:42:09;9.77;;;6.35;;
32501;SDS011;18952;52.516;13.460;2023-10-09T07:44:36;9.00;;;5.75;;
32501;SDS011;18952;52.516;13.460;2023-10-09T07:47:04;9.65;;;5.78;;
32501;SDS011;18952;52.516;13.460;2023-10-09T07:49:31;7.78;;;5.30;;
32501;SDS011;18952;52.516;13.460;2023-10-09T07:51:58;7.60;;;5.75;;
32501;SDS011;18952;52.516;13.460;2023-10-09T07:54:25;7.63;;;5.78;;
32501;SDS011;18952;52.516;13.460;2023-10-09T07:56:51;7.43;;;6.03;;
32501;SDS011;18952;52.516;13.460;2023-10-09T07:59:18;7.00;;;5.88;;
32501;SDS011;18952;52.516;13.460;2023-10-09T08:01:49;9.55;;;5.57;;
32501;SDS011;18952;52.516;13.460;2023-10-09T08:04:16;8.20;;;6.22;;
32501;SDS011;18952;52.516;13.460;2023-10-09T08:06:43;8.80;;;6.47;;
32501;SDS011;18952;52.516;13.460;2023-10-09T08:09:30;8.43;;;6.20;;
32501;SDS011;18952;52.516;13.460;2023-10-09T08:11:57;9.02;;;6.13;;
32501;SDS011;18952;52.516;13.460;2023-10-09T08:14:24;7.85;;;5.90;;
32501;SDS011;18952;52.516;13.460;2023-10-09T08:16:50;10.18;;;6.10;;
32501;SDS011;18952;52.516;13.460;2023-10-09T08:19:17;11.35;;;6.95;;
32501;SDS011;18952;52.516;13.460;2023-10-09T08:21:44;10.73;;;6.55;;
32501;SDS011;18952;52.516;13.460;2023-10-09T08:24:11;8.65;;;6.05;;
32501;SDS011;18952;52.516;13.460;2023-10-09T08:26:38;10.68;;;6.22;;
32501;SDS011;18952;52.516;13.460;2023-10-09T08:29:05;8.32;;;5.63;;
32501;SDS011;18952;52.516;13.460;2023-10-09T08:31:32;7.53;;;5.18;;
32501;SDS011;18952;52.516;13.460;2023-10-09T08:33:59;10.38;;;6.72;;
32501;SDS011;18952;52.516;13.460;2023-10-09T08:36:32;9.25;;;6.45;;
32501;SDS011;18952;52.516;13.460;2023-10-09T08:38:59;9.02;;;6.22;;
32501;SDS011;18952;52.516;13.460;2023-10-09T08:41:26;8.40;;;5.20;;
32501;SDS011;18952;52.516;13.460;2023-10-09T08:43:53;9.23;;;5.50;;
32501;SDS011;18952;52.516;13.460;2023-10-09T08:48:52;6.53;;;4.70;;
32501;SDS011;18952;52.516;13.460;2023-10-09T08:51:23;7.32;;;5.55;;
32501;SDS011;18952;52.516;13.460;2023-10-09T08:53:51;6.53;;;4.85;;
32501;SDS011;18952;52.516;13.460;2023-10-09T08:56:19;8.55;;;5.10;;
32501;SDS011;18952;52.516;13.460;2023-10-09T08:58:46;7.40;;;5.68;;
32501;SDS011;18952;52.516;13.460;2023-10-09T09:01:17;7.05;;;4.95;;
32501;SDS011;18952;52.516;13.460;2023-10-09T09:03:45;9.10;;;5.20;;
32501;SDS011;18952;52.516;13.460;2023-10-09T09:06:12;7.20;;;4.80;;
32501;SDS011;18952;52.516;13.460;2023-10-09T09:08:41;10.98;;;5.05;;
32501;SDS011;18952;52.516;13.460;2023-10-09T09:11:09;7.38;;;5.55;;
32501;SDS011;18952;52.516;13.460;2023-10-09T09:16:28;7.65;;;5.15;;
32501;SDS011;18952;52.516;13.460;2023-10-09T09:18:54;9.35;;;5.22;;
32501;SDS011;18952;52.516;13.460;2023-10-09T09:21:27;7.80;;;5.22;;
32501;SDS011;18952;52.516;13.460;2023-10-09T09:23:56;8.18;;;5.15;;
32501;SDS011;18952;52.516;13.460;2023-10-09T09:26:34;7.43;;;4.78;;
32501;SDS011;18952;52.516;13.460;2023-10-09T09:29:02;9.77;;;4.97;;
32501;SDS011;18952;52.516;13.460;2023-10-09T09:31:29;8.77;;;5.25;;
32501;SDS011;18952;52.516;13.460;2023-10-09T09:33:56;10.55;;;5.65;;
32501;SDS011;18952;52.516;13.460;2023-10-09T09:36:23;17.63;;;5.57;;
32501;SDS011;18952;52.516;13.460;2023-10-09T09:38:50;9.18;;;5.07;;
32501;SDS011;18952;52.516;13.460;2023-10-09T09:41:18;6.97;;;5.22;;
32501;SDS011;18952;52.516;13.460;2023-10-09T09:43:45;10.63;;;5.38;;
32501;SDS011;18952;52.516;13.460;2023-10-09T09:46:12;7.13;;;5.20;;
32501;SDS011;18952;52.516;13.460;2023-10-09T09:48:40;7.10;;;4.95;;
32501;SDS011;18952;52.516;13.460;2023-10-09T09:51:09;13.63;;;5.93;;
32501;SDS011;18952;52.516;13.460;2023-10-09T09:53:36;7.47;;;5.75;;
32501;SDS011;18952;52.516;13.460;2023-10-09T09:56:03;9.38;;;5.53;;
32501;SDS011;18952;52.516;13.460;2023-10-09T09:58:31;8.25;;;5.55;;
32501;SDS011;18952;52.516;13.460;2023-10-09T10:01:03;7.18;;;5.03;;
32501;SDS011;18952;52.516;13.460;2023-10-09T10:03:31;10.63;;;5.38;;
32501;SDS011;18952;52.516;13.460;2023-10-09T10:06:02;6.72;;;4.80;;
32501;SDS011;18952;52.516;13.460;2023-10-09T10:08:31;7.82;;;5.70;;
32501;SDS011;18952;52.516;13.460;2023-10-09T10:10:58;7.03;;;5.43;;
32501;SDS011;18952;52.516;13.460;2023-10-09T10:16:09;11.48;;;5.60;;
32501;SDS011;18952;52.516;13.460;2023-10-09T10:19:00;9.45;;;5.32;;
32501;SDS011;18952;52.516;13.460;2023-10-09T10:21:30;6.93;;;5.00;;
32501;SDS011;18952;52.516;13.460;2023-10-09T10:24:00;8.20;;;6.10;;
32501;SDS011;18952;52.516;13.460;2023-10-09T10:26:28;16.60;;;5.70;;
32501;SDS011;18952;52.516;13.460;2023-10-09T10:31:57;6.97;;;4.55;;
32501;SDS011;18952;52.516;13.460;2023-10-09T10:34:24;10.65;;;7.22;;
32501;SDS011;18952;52.516;13.460;2023-10-09T10:36:52;8.77;;;5.60;;
32501;SDS011;18952;52.516;13.460;2023-10-09T10:39:19;12.50;;;5.65;;
32501;SDS011;18952;52.516;13.460;2023-10-09T10:41:55;13.80;;;5.90;;
32501;SDS011;18952;52.516;13.460;2023-10-09T10:44:30;9.27;;;5.80;;
32501;SDS011;18952;52.516;13.460;2023-10-09T10:46:57;8.68;;;5.20;;
32501;SDS011;18952;52.516;13.460;2023-10-09T10:49:24;7.70;;;5.50;;
32501;SDS011;18952;52.516;13.460;2023-10-09T10:51:53;7.35;;;4.97;;
32501;SDS011;18952;52.516;13.460;2023-10-09T10:54:20;11.30;;;5.13;;
32501;SDS011;18952;52.516;13.460;2023-10-09T10:56:49;7.40;;;5.13;;
32501;SDS011;18952;52.516;13.460;2023-10-09T10:59:16;7.82;;;5.07;;
32501;SDS011;18952;52.516;13.460;2023-10-09T11:01:46;8.50;;;5.30;;
32501;SDS011;18952;52.516;13.460;2023-10-09T11:04:13;8.32;;;4.88;;
32501;SDS011;18952;52.516;13.460;2023-10-09T11:06:40;9.18;;;5.47;;
32501;SDS011;18952;52.516;13.460;2023-10-09T11:09:08;6.25;;;4.60;;
32501;SDS011;18952;52.516;13.460;2023-10-09T11:11:36;14.25;;;5.43;;
32501;SDS011;18952;52.516;13.460;2023-10-09T11:14:12;7.10;;;5.22;;
32501;SDS011;18952;52.516;13.460;2023-10-09T11:16:40;6.25;;;4.85;;
32501;SDS011;18952;52.516;13.460;2023-10-09T11:19:09;8.27;;;5.82;;
32501;SDS011;18952;52.516;13.460;2023-10-09T11:21:40;9.57;;;5.40;;
32501;SDS011;18952;52.516;13.460;2023-10-09T11:24:08;6.35;;;4.75;;
32501;SDS011;18952;52.516;13.460;2023-10-09T11:26:35;8.60;;;5.78;;
32501;SDS011;18952;52.516;13.460;2023-10-09T11:29:06;8.35;;;5.38;;
32501;SDS011;18952;52.516;13.460;2023-10-09T11:31:33;7.63;;;5.22;;
32501;SDS011;18952;52.516;13.460;2023-10-09T11:34:00;6.47;;;5.78;;
32501;SDS011;18952;52.516;13.460;2023-10-09T11:36:27;7.95;;;5.82;;
32501;SDS011;18952;52.516;13.460;2023-10-09T11:38:54;8.80;;;6.40;;
32501;SDS011;18952;52.516;13.460;2023-10-09T11:41:21;8.30;;;7.00;;
32501;SDS011;18952;52.516;13.460;2023-10-09T11:43:48;11.02;;;7.40;;
32501;SDS011;18952;52.516;13.460;2023-10-09T11:46:17;10.00;;;7.78;;
32501;SDS011;18952;52.516;13.460;2023-10-09T11:48:45;10.57;;;7.15;;
32501;SDS011;18952;52.516;13.460;2023-10-09T11:51:12;8.43;;;6.55;;
32501;SDS011;18952;52.516;13.460;2023-10-09T11:53:40;7.82;;;5.75;;
32501;SDS011;18952;52.516;13.460;2023-10-09T11:56:07;8.82;;;5.97;;
32501;SDS011;18952;52.516;13.460;2023-10-09T11:58:34;7.75;;;6.07;;
32501;SDS011;18952;52.516;13.460;2023-10-09T12:01:10;8.40;;;5.90;;
32501;SDS011;18952;52.516;13.460;2023-10-09T12:03:38;8.40;;;5.50;;
32501;SDS011;18952;52.516;13.460;2023-10-09T12:06:05;8.00;;;5.63;;
32501;SDS011;18952;52.516;13.460;2023-10-09T12:08:32;8.70;;;6.78;;
32501;SDS011;18952;52.516;13.460;2023-10-09T12:11:01;8.65;;;6.15;;
32501;SDS011;18952;52.516;13.460;2023-10-09T12:13:29;10.55;;;7.30;;
32501;SDS011;18952;52.516;13.460;2023-10-09T12:15:56;10.73;;;7.72;;
32501;SDS011;18952;52.516;13.460;2023-10-09T12:18:23;11.23;;;7.03;;
32501;SDS011;18952;52.516;13.460;2023-10-09T12:20:50;11.65;;;6.60;;
32501;SDS011;18952;52.516;13.460;2023-10-09T12:23:18;11.55;;;7.00;;
32501;SDS011;18952;52.516;13.460;2023-10-09T12:25:47;9.38;;;7.97;;
32501;SDS011;18952;52.516;13.460;2023-10-09T12:28:15;13.35;;;7.60;;
32501;SDS011;18952;52.516;13.460;2023-10-09T12:30:42;8.27;;;7.40;;
32501;SDS011;18952;52.516;13.460;2023-10-09T12:33:09;9.30;;;7.22;;
32501;SDS011;18952;52.516;13.460;2023-10-09T12:35:36;8.23;;;7.03;;
32501;SDS011;18952;52.516;13.460;2023-10-09T12:38:04;6.82;;;6.22;;
32501;SDS011;18952;52.516;13.460;2023-10-09T12:40:32;9.07;;;7.30;;
32501;SDS011;18952;52.516;13.460;2023-10-09T12:42:59;12.32;;;7.50;;
32501;SDS011;18952;52.516;13.460;2023-10-09T12:45:26;14.27;;;9.13;;
32501;SDS011;18952;52.516;13.460;2023-10-09T12:47:53;9.48;;;7.72;;
32501;SDS011;18952;52.516;13.460;2023-10-09T12:50:21;14.35;;;8.23;;
32501;SDS011;18952;52.516;13.460;2023-10-09T12:52:47;13.07;;;9.18;;
32501;SDS011;18952;52.516;13.460;2023-10-09T12:55:15;10.95;;;8.70;;
32501;SDS011;18952;52.516;13.460;2023-10-09T12:57:41;8.15;;;7.35;;
32501;SDS011;18952;52.516;13.460;2023-10-09T13:00:08;10.68;;;8.60;;
32501;SDS011;18952;52.516;13.460;2023-10-09T13:02:36;12.00;;;8.45;;
32501;SDS011;18952;52.516;13.460;2023-10-09T13:05:03;8.18;;;6.97;;
32501;SDS011;18952;52.516;13.460;2023-10-09T13:07:30;10.73;;;7.65;;
32501;SDS011;18952;52.516;13.460;2023-10-09T13:09:57;10.35;;;8.40;;
32501;SDS011;18952;52.516;13.460;2023-10-09T13:12:24;9.20;;;8.05;;
32501;SDS011;18952;52.516;13.460;2023-10-09T13:14:51;10.93;;;9.52;;
32501;SDS011;18952;52.516;13.460;2023-10-09T13:17:18;14.38;;;10.07;;
32501;SDS011;18952;52.516;13.460;2023-10-09T13:19:45;10.75;;;8.95;;
32501;SDS011;18952;52.516;13.460;2023-10-09T13:22:11;11.15;;;10.05;;
32501;SDS011;18952;52.516;13.460;2023-10-09T13:24:38;11.70;;;8.98;;
32501;SDS011;18952;52.516;13.460;2023-10-09T13:27:05;12.85;;;9.52;;
32501;SDS011;18952;52.516;13.460;2023-10-09T13:29:32;12.55;;;9.30;;
32501;SDS011;18952;52.516;13.460;2023-10-09T13:31:59;9.88;;;8.82;;
32501;SDS011;18952;52.516;13.460;2023-10-09T13:34:26;14.52;;;9.35;;
32501;SDS011;18952;52.516;13.460;2023-10-09T13:36:53;12.23;;;8.55;;
32501;SDS011;18952;52.516;13.460;2023-10-09T13:39:20;10.57;;;9.43;;
32501;SDS011;18952;52.516;13.460;2023-10-09T13:41:47;11.65;;;9.90;;
32501;SDS011;18952;52.516;13.460;2023-10-09T13:44:15;12.57;;;9.80;;
32501;SDS011;18952;52.516;13.460;2023-10-09T13:46:43;11.82;;;8.73;;
32501;SDS011;18952;52.516;13.460;2023-10-09T13:49:10;15.93;;;10.05;;
32501;SDS011;18952;52.516;13.460;2023-10-09T13:51:40;12.40;;;9.43;;
32501;SDS011;18952;52.516;13.460;2023-10-09T13:54:07;18.75;;;9.45;;
32501;SDS011;18952;52.516;13.460;2023-10-09T13:56:34;11.80;;;10.23;;
32501;SDS011;18952;52.516;13.460;2023-10-09T13:59:01;12.30;;;10.25;;
32501;SDS011;18952;52.516;13.460;2023-10-09T14:01:28;11.00;;;9.68;;
32501;SDS011;18952;52.516;13.460;2023-10-09T14:03:58;12.23;;;9.77;;
32501;SDS011;18952;52.516;13.460;2023-10-09T14:06:27;17.25;;;9.45;;
32501;SDS011;18952;52.516;13.460;2023-10-09T14:08:54;11.52;;;9.90;;
32501;SDS011;18952;52.516;13.460;2023-10-09T14:11:21;13.13;;;10.50;;
32501;SDS011;18952;52.516;13.460;2023-10-09T14:13:48;17.02;;;10.40;;
32501;SDS011;18952;52.516;13.460;2023-10-09T14:16:32;13.80;;;10.32;;
32501;SDS011;18952;52.516;13.460;2023-10-09T14:18:59;13.88;;;10.02;;
32501;SDS011;18952;52.516;13.460;2023-10-09T14:21:28;12.43;;;9.95;;
32501;SDS011;18952;52.516;13.460;2023-10-09T14:23:56;11.20;;;9.70;;
32501;SDS011;18952;52.516;13.460;2023-10-09T14:26:26;14.93;;;10.50;;
32501;SDS011;18952;52.516;13.460;2023-10-09T14:28:54;10.82;;;9.00;;
32501;SDS011;18952;52.516;13.460;2023-10-09T14:31:23;11.40;;;9.05;;
32501;SDS011;18952;52.516;13.460;2023-10-09T14:33:51;16.98;;;9.32;;
32501;SDS011;18952;52.516;13.460;2023-10-09T14:36:24;13.18;;;9.57;;
32501;SDS011;18952;52.516;13.460;2023-10-09T14:38:51;12.13;;;9.15;;
32501;SDS011;18952;52.516;13.460;2023-10-09T14:41:19;11.45;;;9.40;;
32501;SDS011;18952;52.516;13.460;2023-10-09T14:43:46;12.13;;;9.27;;
32501;SDS011;18952;52.516;13.460;2023-10-09T14:46:13;17.95;;;9.88;;